Glendale, Mississippi
Current Conditions -  °F | °C
As of 2:53 PM on Sunday 23 Nov 2014 (Local Time) from KHBG Reporting Station
Broken Clouds Broken Clouds  
Wind Chill: 72°   Ceiling: 4100
Heat Index: 72°   Visibility: 10mi
Dew Point: 60°   Wind: 15mph
Humidity: 66%   Direction: 220°SW
Pressure: 29.59"   Gusts: 24mph
Location:  31.1996°N, 89.2694°W
Report Text: KHBG 232053Z AUTO 22013G21KT 10SM BKN041 22/16 A2959 RMK AO2 SLP019 T02220156 56013
Loading
Personal Weather Stations






























Interactive Weather Map New forecast layout! Learn more

10-Day Weather Forecast

Advertisements
Track Severe Weather on mobile